La Mesa, New Mexico
Current Conditions -  °F | °C
As of 4:35 PM on Saturday 25 Oct 2014 (Local Time) from KLRU Reporting Station
Clear Clear  
Wind Chill: 82°   Ceiling: Unl
Heat Index: 82°   Visibility: 10mi
Dew Point: 40°   Wind: 8mph
Humidity: 22%   Direction: 290°WNW
Pressure: 30.18"   Gusts: NA
Location:  32.12°N, 106.71°W
Report Text: KLRU 252235Z AUTO 29007KT 10SM CLR 28/04 A3018 RMK AO2 T02800042
Loading
Personal Weather Stations






























Interactive Weather Map New forecast layout! Learn more

10-Day Weather Forecast

Advertisements
Track Severe Weather on mobile